createdAt,value
2019-06-10T00:01:51.417Z,50.49
2019-06-10T00:04:18.157Z,50.86
2019-06-10T00:06:45.030Z,51.16
2019-06-10T00:09:12.005Z,50.49
2019-06-10T00:11:41.122Z,50.96
2019-06-10T00:14:07.538Z,51.38
2019-06-10T00:16:34.310Z,51.40
2019-06-10T00:19:04.837Z,51.32
2019-06-10T00:21:30.821Z,51.19
2019-06-10T00:23:57.761Z,51.72
2019-06-10T00:26:24.482Z,51.35
2019-06-10T00:28:51.442Z,51.02
2019-06-10T00:31:20.756Z,51.17
2019-06-10T00:33:47.468Z,50.96
2019-06-10T00:36:14.171Z,50.97
2019-06-10T00:38:41.269Z,51.39
2019-06-10T00:41:09.949Z,51.43
2019-06-10T00:43:36.765Z,51.34
2019-06-10T00:46:05.794Z,52.12
2019-06-10T00:48:32.587Z,51.91
2019-06-10T00:51:01.333Z,52.40
2019-06-10T00:53:28.072Z,52.45
2019-06-10T00:55:54.876Z,52.87
2019-06-10T00:58:21.874Z,52.16
2019-06-10T01:00:51.446Z,52.37
2019-06-10T01:03:17.372Z,52.98
2019-06-10T01:05:44.220Z,53.22
2019-06-10T01:10:54.076Z,52.73
2019-06-10T01:13:20.926Z,52.46
2019-06-10T01:16:07.489Z,52.26
2019-06-10T01:18:38.365Z,52.78
2019-06-10T01:21:03.857Z,53.41
2019-06-10T01:23:31.191Z,53.33
2019-06-10T01:25:57.974Z,53.08
2019-06-10T01:28:24.582Z,53.46
2019-06-10T01:30:51.813Z,53.42
2019-06-10T01:33:21.084Z,53.43
2019-06-10T01:35:47.786Z,53.86
2019-06-10T01:38:16.302Z,54.09
2019-06-10T01:40:43.143Z,54.61
2019-06-10T01:43:13.362Z,54.90
2019-06-10T01:45:41.591Z,54.64
2019-06-10T01:48:08.759Z,55.13
2019-06-10T01:50:35.977Z,54.25
2019-06-10T01:53:02.798Z,55.41
2019-06-10T01:55:31.147Z,54.67
2019-06-10T01:57:58.079Z,55.33
2019-06-10T02:00:31.929Z,56.23
2019-06-10T02:02:58.631Z,57.20
2019-06-10T02:05:25.737Z,56.87
2019-06-10T02:07:52.520Z,56.64
2019-06-10T02:10:22.554Z,57.75
2019-06-10T02:12:47.899Z,57.49
2019-06-10T02:15:15.581Z,57.71
2019-06-10T02:17:43.348Z,57.84
2019-06-10T02:20:12.950Z,58.04
2019-06-10T02:22:41.074Z,57.82
2019-06-10T02:25:07.969Z,58.13
2019-06-10T02:27:34.661Z,57.08
2019-06-10T02:30:07.975Z,56.83
2019-06-10T02:32:36.942Z,56.82
2019-06-10T02:35:08.650Z,56.58
2019-06-10T02:37:32.358Z,57.60
2019-06-10T02:39:56.593Z,57.01
2019-06-10T02:42:36.106Z,58.39
2019-06-10T02:45:04.906Z,58.64
2019-06-10T02:47:36.641Z,59.11
2019-06-10T02:50:07.108Z,60.02
2019-06-10T02:52:32.615Z,60.66
2019-06-10T02:54:57.769Z,60.74
2019-06-10T02:57:31.930Z,60.84
2019-06-10T02:59:54.312Z,61.23
2019-06-10T03:02:23.727Z,61.34
2019-06-10T03:04:50.021Z,62.21
2019-06-10T03:07:17.918Z,62.69
2019-06-10T03:09:44.792Z,61.66
2019-06-10T03:12:12.224Z,59.98
2019-06-10T03:14:38.835Z,59.70
2019-06-10T03:17:12.363Z,59.63
2019-06-10T03:19:49.493Z,60.14
2019-06-10T03:22:07.387Z,60.78
2019-06-10T03:24:34.366Z,60.96
2019-06-10T03:27:02.637Z,60.89
2019-06-10T03:29:29.546Z,60.80
2019-06-10T03:31:56.483Z,61.39
2019-06-10T03:34:33.702Z,61.91
2019-06-10T03:36:53.507Z,62.30
2019-06-10T03:39:21.384Z,62.58
2019-06-10T03:41:48.940Z,62.33
2019-06-10T03:44:16.843Z,62.44
2019-06-10T03:46:43.631Z,62.39
2019-06-10T03:49:12.472Z,62.11
2019-06-10T03:51:38.787Z,61.16
2019-06-10T03:54:05.891Z,60.88
2019-06-10T03:56:32.552Z,60.68
2019-06-10T03:58:59.241Z,61.57
2019-06-10T04:01:28.604Z,60.85
2019-06-10T04:03:54.704Z,61.50
2019-06-10T04:06:23.914Z,60.72
2019-06-10T04:08:52.261Z,61.17
2019-06-10T04:11:19.464Z,61.31
2019-06-10T04:13:46.292Z,59.89
2019-06-10T04:16:13.370Z,61.01
2019-06-10T04:18:40.064Z,61.52
2019-06-10T04:21:06.735Z,60.81
2019-06-10T04:23:33.703Z,60.50
2019-06-10T04:26:02.297Z,60.28
2019-06-10T04:28:29.084Z,61.25
2019-06-10T04:30:55.658Z,60.82
2019-06-10T04:33:23.281Z,60.91
2019-06-10T04:35:52.000Z,60.96
2019-06-10T04:38:18.955Z,60.86
2019-06-10T04:40:45.738Z,60.57
2019-06-10T04:43:12.551Z,59.78
2019-06-10T04:45:39.226Z,58.35
2019-06-10T04:48:06.106Z,57.88
2019-06-10T04:50:41.918Z,55.63
2019-06-10T04:53:02.284Z,55.64
2019-06-10T04:55:29.346Z,54.70
2019-06-10T04:57:56.063Z,54.60
2019-06-10T05:00:25.456Z,54.95
2019-06-10T05:02:52.233Z,54.52
2019-06-10T05:05:19.151Z,54.39
2019-06-10T05:07:45.925Z,53.89
2019-06-10T05:10:12.725Z,54.43
2019-06-10T05:12:39.384Z,54.34
2019-06-10T05:15:06.182Z,54.83
2019-06-10T05:17:34.347Z,55.60
2019-06-10T05:20:02.491Z,56.22
2019-06-10T05:22:30.620Z,57.77
2019-06-10T05:24:58.015Z,57.16
2019-06-10T05:27:26.703Z,58.10
2019-06-10T05:29:53.279Z,58.13
2019-06-10T05:32:22.493Z,57.87
2019-06-10T05:34:48.784Z,58.05
2019-06-10T05:37:15.551Z,57.99
2019-06-10T05:39:42.493Z,57.26
2019-06-10T05:42:09.304Z,58.23
2019-06-10T05:44:35.953Z,59.81
2019-06-10T05:47:03.802Z,59.97
2019-06-10T05:49:33.663Z,60.47
2019-06-10T05:51:59.424Z,61.13
2019-06-10T05:54:27.529Z,61.72
2019-06-10T05:56:54.322Z,61.33
2019-06-10T05:59:23.009Z,60.93
2019-06-10T06:01:49.933Z,59.89
2019-06-10T06:04:16.722Z,57.50
2019-06-10T06:06:45.043Z,57.80
2019-06-10T06:09:12.929Z,58.10
2019-06-10T06:11:39.892Z,57.37
2019-06-10T06:14:06.677Z,56.58
2019-06-10T06:16:36.054Z,55.62
2019-06-10T06:19:03.229Z,53.59
2019-06-10T06:21:38.697Z,52.16
2019-06-10T06:23:58.827Z,51.04
2019-06-10T06:26:26.346Z,48.81
2019-06-10T06:28:53.711Z,46.82
2019-06-10T06:31:23.022Z,45.24
2019-06-10T06:33:49.167Z,45.41
2019-06-10T06:36:15.974Z,43.24
2019-06-10T06:38:43.814Z,38.39
2019-06-10T06:41:13.427Z,35.58
2019-06-10T06:43:44.396Z,35.56
2019-06-10T06:46:08.259Z,34.40
2019-06-10T06:48:38.368Z,36.50
2019-06-10T06:51:08.072Z,38.78
2019-06-10T06:53:43.796Z,36.84
2019-06-10T06:56:03.578Z,33.50
2019-06-10T06:58:32.294Z,30.99
2019-06-10T07:01:05.935Z,29.12
2019-06-10T07:03:27.178Z,31.58
2019-06-10T07:05:54.470Z,30.70
2019-06-10T07:08:22.773Z,31.47
2019-06-10T07:10:52.236Z,31.21
2019-06-10T07:13:19.321Z,32.75
2019-06-10T07:15:47.388Z,30.92
2019-06-10T07:18:14.410Z,31.67
2019-06-10T07:20:45.349Z,31.41
2019-06-10T07:23:09.885Z,32.51
2019-06-10T07:25:38.472Z,34.19
2019-06-10T07:28:05.400Z,33.40
2019-06-10T07:30:36.934Z,29.81
2019-06-10T07:33:02.908Z,31.60
2019-06-10T07:35:29.467Z,31.85
2019-06-10T07:37:56.258Z,28.45
2019-06-10T07:40:23.040Z,26.30
2019-06-10T07:42:49.734Z,28.63
2019-06-10T07:45:17.425Z,25.84
2019-06-10T07:47:45.650Z,24.78
2019-06-10T07:50:13.158Z,23.78
2019-06-10T07:52:42.991Z,22.18
2019-06-10T07:55:08.755Z,22.50
2019-06-10T07:57:35.999Z,21.54
2019-06-10T08:00:04.701Z,21.19
2019-06-10T08:02:32.292Z,19.99
2019-06-10T08:05:03.687Z,19.39
2019-06-10T08:07:33.261Z,20.00
2019-06-10T08:09:59.726Z,22.99
2019-06-10T08:12:26.422Z,21.47
2019-06-10T08:14:53.539Z,20.04
2019-06-10T08:17:22.403Z,19.53
2019-06-10T08:19:50.961Z,18.24
2019-06-10T08:22:31.171Z,23.92
2019-06-10T08:24:47.821Z,23.45
2019-06-10T08:27:15.202Z,22.72
2019-06-10T08:29:46.157Z,23.27
2019-06-10T08:32:12.935Z,23.67
2019-06-10T08:34:40.829Z,21.37
2019-06-10T08:37:08.100Z,21.44
2019-06-10T08:39:36.111Z,20.59
2019-06-10T08:42:03.322Z,19.92
2019-06-10T08:44:32.583Z,20.76
2019-06-10T08:47:02.956Z,23.80
2019-06-10T08:49:29.495Z,22.77
2019-06-10T08:51:56.303Z,21.77
2019-06-10T08:54:23.559Z,25.83
2019-06-10T08:56:53.771Z,24.39
2019-06-10T08:59:19.078Z,26.27
2019-06-10T09:01:50.194Z,25.76
2019-06-10T09:04:14.568Z,24.95
2019-06-10T09:06:46.335Z,23.60
2019-06-10T09:09:12.722Z,20.99
2019-06-10T09:11:43.117Z,21.49
2019-06-10T09:14:08.063Z,19.15
2019-06-10T09:16:34.766Z,20.89
2019-06-10T09:19:02.231Z,22.12
2019-06-10T09:21:29.187Z,22.68
2019-06-10T09:23:59.994Z,21.25
2019-06-10T09:26:24.876Z,21.18
2019-06-10T09:28:55.734Z,21.99
2019-06-10T09:31:23.007Z,22.64
2019-06-10T09:33:53.641Z,22.95
2019-06-10T09:36:17.761Z,24.61
2019-06-10T09:38:48.694Z,24.08
2019-06-10T09:41:15.347Z,24.68
2019-06-10T09:43:48.950Z,25.86
2019-06-10T09:46:12.682Z,26.68
2019-06-10T09:48:41.248Z,25.10
2019-06-10T09:51:08.877Z,21.93
2019-06-10T09:53:42.706Z,19.64
2019-06-10T09:56:04.587Z,20.53
2019-06-10T09:58:32.903Z,19.29
2019-06-10T10:01:03.269Z,18.77
2019-06-10T10:03:29.213Z,19.22
2019-06-10T10:06:09.840Z,20.96
2019-06-10T10:08:24.697Z,22.01
2019-06-10T10:10:58.234Z,21.54
2019-06-10T10:13:22.534Z,19.65
2019-06-10T10:15:50.462Z,20.35
2019-06-10T10:18:18.117Z,20.23
2019-06-10T10:20:48.085Z,20.87
2019-06-10T10:23:13.827Z,22.51
2019-06-10T10:25:43.332Z,21.30
2019-06-10T10:28:09.395Z,20.58
2019-06-10T10:30:36.076Z,21.03
2019-06-10T10:33:03.863Z,21.20
2019-06-10T10:35:32.621Z,20.90
2019-06-10T10:37:59.548Z,21.59
2019-06-10T10:40:26.325Z,22.53
2019-06-10T10:43:25.344Z,20.25
2019-06-10T10:45:43.488Z,21.12
2019-06-10T10:48:10.076Z,19.07
2019-06-10T10:50:36.841Z,20.52
2019-06-10T10:53:03.649Z,19.95
2019-06-10T10:55:32.737Z,20.46
2019-06-10T10:57:58.919Z,25.01
2019-06-10T11:00:36.462Z,28.67
2019-06-10T11:02:58.393Z,27.20
2019-06-10T11:05:33.450Z,24.80
2019-06-10T11:08:00.436Z,22.80
2019-06-10T11:10:28.056Z,21.17
2019-06-10T11:12:57.294Z,21.81
2019-06-10T11:15:27.354Z,21.47
2019-06-10T11:17:56.362Z,24.90
2019-06-10T11:20:22.902Z,25.88
2019-06-10T11:22:49.653Z,25.79
2019-06-10T11:25:16.475Z,25.01
2019-06-10T11:27:47.969Z,24.50
2019-06-10T11:30:15.985Z,25.46
2019-06-10T11:32:46.129Z,24.47
2019-06-10T11:35:13.390Z,24.19
2019-06-10T11:37:42.279Z,26.25
2019-06-10T11:40:09.567Z,23.58
2019-06-10T11:42:36.150Z,22.67
2019-06-10T11:45:03.661Z,21.33
2019-06-10T11:47:32.888Z,24.22
2019-06-10T11:49:59.146Z,26.03
2019-06-10T11:52:28.068Z,25.86
2019-06-10T11:55:05.691Z,27.20
2019-06-10T11:57:23.530Z,27.92
2019-06-10T11:59:53.239Z,27.14
2019-06-10T12:02:22.443Z,23.99
2019-06-10T12:04:48.992Z,22.33
2019-06-10T12:07:15.780Z,22.22
2019-06-10T12:09:42.690Z,23.16
2019-06-10T12:14:59.489Z,20.07
2019-06-10T12:17:41.613Z,16.68
2019-06-10T12:19:58.958Z,15.68
2019-06-10T12:22:23.596Z,15.80
2019-06-10T12:24:57.733Z,15.70
2019-06-10T12:27:19.279Z,17.80
2019-06-10T12:29:46.060Z,17.11
2019-06-10T12:32:13.509Z,17.58
2019-06-10T12:34:40.398Z,18.41
2019-06-10T12:37:14.833Z,18.23
2019-06-10T12:39:42.234Z,18.46
2019-06-10T12:42:13.461Z,21.27
2019-06-10T12:44:37.659Z,22.88
2019-06-10T12:47:07.864Z,24.48
2019-06-10T12:49:33.055Z,23.12
2019-06-10T12:52:07.569Z,22.38
2019-06-10T12:54:34.193Z,19.13
2019-06-10T12:57:04.775Z,18.23
2019-06-10T12:59:32.259Z,18.29
2019-06-10T13:02:11.344Z,17.17
2019-06-10T13:04:32.174Z,17.62
2019-06-10T13:07:00.513Z,19.17
2019-06-10T13:09:29.458Z,21.05
2019-06-10T13:11:57.755Z,18.59
2019-06-10T13:14:26.183Z,17.86
2019-06-10T13:16:54.047Z,15.97
2019-06-10T13:19:23.031Z,16.94
2019-06-10T13:21:52.803Z,19.64
2019-06-10T13:24:19.419Z,20.87
2019-06-10T13:26:46.209Z,23.52
2019-06-10T13:29:17.418Z,25.24
2019-06-10T13:31:43.613Z,28.17
2019-06-10T13:34:13.769Z,26.90
2019-06-10T13:36:39.101Z,27.65
2019-06-10T13:39:10.516Z,28.81
2019-06-10T13:41:37.745Z,29.25
2019-06-10T13:44:04.708Z,30.21
2019-06-10T13:46:33.052Z,29.87
2019-06-10T13:49:02.047Z,29.24
2019-06-10T13:51:28.907Z,29.12
2019-06-10T13:53:55.701Z,28.42
2019-06-10T13:56:39.786Z,27.62
2019-06-10T13:58:52.261Z,27.07
2019-06-10T14:01:21.917Z,28.03
2019-06-10T14:03:47.642Z,28.33
2019-06-10T14:06:33.090Z,28.54
2019-06-10T14:08:43.747Z,30.28
2019-06-10T14:11:13.141Z,28.20
2019-06-10T14:13:39.500Z,29.39
2019-06-10T14:16:07.470Z,28.98
2019-06-10T14:18:34.776Z,29.67
2019-06-10T14:21:04.936Z,30.78
2019-06-10T14:23:32.932Z,28.59
2019-06-10T14:25:58.736Z,27.06
2019-06-10T14:28:39.792Z,26.08
2019-06-10T14:30:54.266Z,25.21
2019-06-10T14:33:23.056Z,24.11
2019-06-10T14:35:49.421Z,25.38
2019-06-10T14:38:16.205Z,25.63
2019-06-10T14:40:43.160Z,23.79
2019-06-10T14:43:10.341Z,23.15
2019-06-10T14:45:37.140Z,24.32
2019-06-10T14:48:04.959Z,26.92
2019-06-10T14:50:32.458Z,28.34
2019-06-10T14:52:59.302Z,29.40
2019-06-10T14:55:26.097Z,27.54
2019-06-10T14:57:53.260Z,23.11
2019-06-10T15:00:20.168Z,26.01
2019-06-10T15:02:46.775Z,31.68
2019-06-10T15:05:16.125Z,32.64
2019-06-10T15:07:42.571Z,32.74
2019-06-10T15:10:12.827Z,33.80
2019-06-10T15:12:38.476Z,31.83
2019-06-10T15:15:05.402Z,33.08
2019-06-10T15:17:32.573Z,32.50
2019-06-10T15:19:59.476Z,32.07
2019-06-10T15:22:26.150Z,32.78
2019-06-10T15:24:55.292Z,31.63
2019-06-10T15:27:29.847Z,31.01
2019-06-10T15:29:52.590Z,31.21
2019-06-10T15:32:33.269Z,32.16
2019-06-10T15:34:47.901Z,31.03
2019-06-10T15:37:17.164Z,30.30
2019-06-10T15:39:43.302Z,30.66
2019-06-10T15:42:11.525Z,30.92
2019-06-10T15:44:48.538Z,29.59
2019-06-10T15:47:07.129Z,29.47
2019-06-10T15:49:33.931Z,29.47
2019-06-10T15:52:03.319Z,28.69
2019-06-10T15:54:29.759Z,28.77
2019-06-10T15:56:56.872Z,28.56
2019-06-10T15:59:23.562Z,30.11
2019-06-10T16:01:50.356Z,28.86
2019-06-10T16:04:17.703Z,32.27
2019-06-10T16:06:45.825Z,33.11
2019-06-10T16:09:14.174Z,33.50
2019-06-10T16:11:43.673Z,32.97
2019-06-10T16:14:10.024Z,32.39
2019-06-10T16:16:36.815Z,32.79
2019-06-10T16:19:03.624Z,32.56
2019-06-10T16:21:30.428Z,33.05
2019-06-10T16:23:57.315Z,32.96
2019-06-10T16:26:26.729Z,33.85
2019-06-10T16:28:52.914Z,34.71
2019-06-10T16:31:21.227Z,35.43
2019-06-10T16:33:49.614Z,37.51
2019-06-10T16:36:17.174Z,36.96
2019-06-10T16:38:44.032Z,38.04
2019-06-10T16:41:12.300Z,37.11
2019-06-10T16:43:39.260Z,37.46
2019-06-10T16:46:06.087Z,36.96
2019-06-10T16:48:33.624Z,36.72
2019-06-10T16:51:03.007Z,36.47
2019-06-10T16:53:31.981Z,36.85
2019-06-10T16:55:57.853Z,37.41
2019-06-10T16:58:27.941Z,38.65
2019-06-10T17:00:54.351Z,38.95
2019-06-10T17:03:25.069Z,38.68
2019-06-10T17:05:49.997Z,38.77
2019-06-10T17:08:17.739Z,39.28
2019-06-10T17:10:44.600Z,39.66
2019-06-10T17:13:14.992Z,39.70
2019-06-10T17:15:42.335Z,39.35
2019-06-10T17:18:09.305Z,40.06
2019-06-10T17:20:36.085Z,40.36
2019-06-10T17:23:23.967Z,45.98
2019-06-10T17:25:53.447Z,42.99
2019-06-10T17:28:24.850Z,41.68
2019-06-10T17:30:49.498Z,41.78
2019-06-10T17:33:16.315Z,42.25
2019-06-10T17:35:43.352Z,42.48
2019-06-10T17:38:12.197Z,42.29
2019-06-10T17:40:39.163Z,43.02
2019-06-10T17:43:05.964Z,43.13
2019-06-10T17:45:32.748Z,45.43
2019-06-10T17:47:59.548Z,45.55
2019-06-10T17:50:27.812Z,47.54
2019-06-10T17:52:54.650Z,49.30
2019-06-10T17:55:25.705Z,48.32
2019-06-10T17:57:50.167Z,48.54
2019-06-10T18:00:16.979Z,49.37
2019-06-10T18:02:46.063Z,49.43
2019-06-10T18:05:12.977Z,50.42
2019-06-10T18:07:39.755Z,51.21
2019-06-10T18:10:08.598Z,51.18
2019-06-10T18:12:35.823Z,52.01
2019-06-10T18:15:03.508Z,52.46
2019-06-10T18:17:33.559Z,52.78
2019-06-10T18:19:59.077Z,53.98
2019-06-10T18:22:26.475Z,54.92
2019-06-10T18:24:53.691Z,54.73
2019-06-10T18:27:22.028Z,54.02
2019-06-10T18:29:48.973Z,52.89
2019-06-10T18:32:17.788Z,52.62
2019-06-10T18:34:44.592Z,51.64
2019-06-10T18:37:11.388Z,51.06
2019-06-10T18:39:38.185Z,49.29
2019-06-10T18:42:05.054Z,48.92
2019-06-10T18:44:35.597Z,49.51
2019-06-10T18:47:02.976Z,50.21
2019-06-10T18:49:32.975Z,50.83
2019-06-10T18:51:59.179Z,52.17
2019-06-10T18:54:25.903Z,52.90
2019-06-10T18:56:52.740Z,53.17
2019-06-10T18:59:21.201Z,53.87
2019-06-10T19:01:49.586Z,54.02
2019-06-10T19:04:16.379Z,54.26
2019-06-10T19:06:45.203Z,54.85
2019-06-10T19:09:12.830Z,55.06
2019-06-10T19:11:40.158Z,55.49
2019-06-10T19:14:07.211Z,55.59
2019-06-10T19:16:35.448Z,55.89
2019-06-10T19:19:02.899Z,56.12
2019-06-10T19:21:30.062Z,55.81
2019-06-10T19:23:56.938Z,55.49
2019-06-10T19:26:23.671Z,55.44
2019-06-10T19:28:50.341Z,55.41
2019-06-10T19:31:17.170Z,54.79
2019-06-10T19:33:45.189Z,55.27
2019-06-10T19:36:12.801Z,55.56
2019-06-10T19:38:39.931Z,54.91
2019-06-10T19:41:06.848Z,55.06
2019-06-10T19:43:36.093Z,54.66
2019-06-10T19:46:04.322Z,54.78
2019-06-10T19:48:35.392Z,54.43
2019-06-10T19:50:59.413Z,54.33
2019-06-10T19:53:26.614Z,54.43
2019-06-10T19:55:53.821Z,54.83
2019-06-10T19:58:23.000Z,55.40
2019-06-10T20:00:53.554Z,55.80
2019-06-10T20:03:17.867Z,56.20
2019-06-10T20:05:46.863Z,56.41
2019-06-10T20:08:13.444Z,56.84
2019-06-10T20:10:40.256Z,57.41
2019-06-10T20:13:07.040Z,57.88
2019-06-10T20:15:33.840Z,58.66
2019-06-10T20:18:02.712Z,58.36
2019-06-10T20:20:29.240Z,58.26
2019-06-10T20:22:57.558Z,58.69
2019-06-10T20:25:24.730Z,58.87
2019-06-10T20:27:52.454Z,58.97
2019-06-10T20:30:25.156Z,60.27
2019-06-10T20:32:51.658Z,60.29
2019-06-10T20:35:17.854Z,60.79
2019-06-10T20:37:46.944Z,61.16
2019-06-10T20:40:15.548Z,61.75
2019-06-10T20:42:42.333Z,62.43
2019-06-10T20:45:09.340Z,62.44
2019-06-10T20:47:37.486Z,62.98
2019-06-10T20:50:06.057Z,63.64
2019-06-10T20:52:52.619Z,64.16
2019-06-10T20:55:19.396Z,64.90
2019-06-10T20:57:54.950Z,64.95
2019-06-10T21:00:33.636Z,65.54
2019-06-10T21:03:03.251Z,65.87
2019-06-10T21:05:30.880Z,65.84
2019-06-10T21:07:58.632Z,64.68
2019-06-10T21:10:33.080Z,64.58
2019-06-10T21:12:59.795Z,64.60
2019-06-10T21:15:49.996Z,65.21
2019-06-10T21:18:14.692Z,65.67
2019-06-10T21:20:46.558Z,65.89
2019-06-10T21:23:13.706Z,66.93
2019-06-10T21:25:40.602Z,67.18
2019-06-10T21:28:07.870Z,67.95
2019-06-10T21:30:41.263Z,68.04
2019-06-10T21:33:03.850Z,68.60
2019-06-10T21:35:31.709Z,68.50
2019-06-10T21:37:58.418Z,69.01
2019-06-10T21:40:25.113Z,68.93
2019-06-10T21:42:52.820Z,68.20
2019-06-10T21:45:22.746Z,68.44
2019-06-10T21:47:50.383Z,67.29
2019-06-10T21:50:38.862Z,66.37
2019-06-10T21:53:05.596Z,66.04
2019-06-10T21:55:33.115Z,65.72
2019-06-10T21:58:03.409Z,66.80
2019-06-10T22:01:06.472Z,67.61
2019-06-10T22:03:23.215Z,67.50
2019-06-10T22:05:49.584Z,67.46
2019-06-10T22:08:16.419Z,68.30
2019-06-10T22:10:44.235Z,69.17
2019-06-10T22:13:12.351Z,69.75
2019-06-10T22:15:39.285Z,70.57
2019-06-10T22:18:06.088Z,71.49
2019-06-10T22:20:32.887Z,72.07
2019-06-10T22:22:59.604Z,71.86
2019-06-10T22:25:26.366Z,73.00
2019-06-10T22:27:54.146Z,73.10
2019-06-10T22:30:22.868Z,73.27
2019-06-10T22:32:53.024Z,73.86
2019-06-10T22:35:19.038Z,74.17
2019-06-10T22:37:45.825Z,74.67
2019-06-10T22:40:12.862Z,75.11
2019-06-10T22:42:39.752Z,75.00
2019-06-10T22:45:07.519Z,74.65
2019-06-10T22:47:34.104Z,74.78
2019-06-10T22:50:06.315Z,75.11
2019-06-10T22:52:32.007Z,75.38
2019-06-10T22:54:58.759Z,75.81
2019-06-10T22:57:25.921Z,75.95
2019-06-10T22:59:53.576Z,76.36
2019-06-10T23:02:22.894Z,76.42
2019-06-10T23:04:51.922Z,76.34
2019-06-10T23:07:18.610Z,77.09
2019-06-10T23:09:45.186Z,77.60
2019-06-10T23:12:12.155Z,78.48
2019-06-10T23:14:38.903Z,79.00
2019-06-10T23:17:05.694Z,79.11
2019-06-10T23:19:33.098Z,78.90
2019-06-10T23:22:02.756Z,78.95
2019-06-10T23:24:32.016Z,79.08
2019-06-10T23:26:58.106Z,79.27
2019-06-10T23:29:24.768Z,79.44
2019-06-10T23:31:55.426Z,78.83
2019-06-10T23:34:23.101Z,79.32
2019-06-10T23:36:50.393Z,79.88
2019-06-10T23:39:17.706Z,79.93
2019-06-10T23:41:44.472Z,79.75
2019-06-10T23:44:12.179Z,79.64
2019-06-10T23:46:39.046Z,79.33
2019-06-10T23:49:05.849Z,79.53
2019-06-10T23:51:33.236Z,79.97
2019-06-10T23:54:02.181Z,80.26
2019-06-10T23:56:28.519Z,80.26
2019-06-10T23:58:55.944Z,80.14
